Terminal Aerodrome Forecast
Issued by NWS

Home | Current Version | Previous Version | Graphics & Text | Print | Product List | Glossary On
Versions: 1 2 3 4 5 6 7 8 9 10 11 12 13 14
000
FTUS43 KGRB 120500
TAFAUW
TAF
KAUW 120520Z 1206/1306 01003KT P6SM SCT050 SCT200
     FM121100 VRB03KT P6SM SCT040 BKN100
     FM121600 27004KT P6SM VCSH BKN040 OVC080
      TEMPO 1220/1223 -RA BKN025 OVC040
     FM122300 27004KT 5SM -RA BR BKN009 OVC018=

USA.gov is the U.S. government's official web portal to all federal, state and local government web resources and services.